Flight Track Log - Related Links

Times and Time Zones

All times are in EST time to prevent confusion due to time zone crossing. See the UAL33 flight status page for this flight to view local times or setup timezone preferences in your user account.

Time Position Orientation Groundspeed Altitude Reporting Facility
EST Latitude Longitude Course Direction KTS MPH feet Rate Location/Type
Tue 04:54:00 AM 36.0145 140.8472 84° East  Level Estimated
Tue 04:55:00 AM 35.9647 141.0217 109° East  Level FlightAware Approximate
Tue 04:56:00 AM 35.9146 141.1960 110° East  Level FlightAware Approximate
Tue 04:57:00 AM 35.9971 141.3503 90° East  Level Estimated
Tue 04:58:00 AM 36.0794 141.5050 86° East  Level Estimated
Tue 04:59:00 AM 36.0116 141.6701 117° Southeast  Level FlightAware Approximate
Tue 05:00:00 AM 36.0936 141.8251 90° East  Level Estimated
Tue 05:01:00 AM 36.1754 141.9804 90° East  Level Estimated
Tue 05:02:00 AM 36.2570 142.1360 90° East  Level Estimated
Tue 05:03:00 AM 36.3384 142.2919 83° East  Level Estimated
Tue 05:04:00 AM 36.4196 142.4482 90° East  Level Estimated
Tue 05:05:00 AM 36.3336 142.6005 125° Southeast  Level FlightAware Approximate
Tue 05:06:00 AM 36.2475 142.7525 125° Southeast  Level FlightAware Approximate
Tue 05:07:00 AM 36.3283 142.9089 87° East  Level Estimated
Tue 05:08:00 AM 36.2511 143.0681 121° Southeast  Level FlightAware Approximate
Tue 05:09:00 AM 36.3315 143.2249 78° East  Level Estimated
Tue 05:10:00 AM 36.3181 143.4100 95° East  Level FlightAware Approximate
Tue 05:11:00 AM 36.3044 143.5950 95° East  Level FlightAware Approximate
Tue 05:12:00 AM 36.2905 143.7800 95° East  Level FlightAware Approximate
Tue 05:13:00 AM 36.2763 143.9649 95° East  Level FlightAware Approximate
Tue 05:14:00 AM 36.2618 144.1497 96° East  Level FlightAware Approximate
Tue 05:15:00 AM 36.2470 144.3345 96° East  Level FlightAware Approximate
Tue 05:16:00 AM 36.2319 144.5192 96° East  Level FlightAware Approximate
Tue 05:17:00 AM 36.2165 144.7038 96° East  Level FlightAware Approximate
Tue 05:18:00 AM 36.2952 144.8618 73° East  Level Estimated
Tue 05:19:00 AM 36.3736 145.0202 68° East  Level Estimated
Tue 05:20:00 AM 36.3783 145.2061 88° East  Level FlightAware Approximate
Tue 05:21:00 AM 36.3828 145.3920 88° East  Level FlightAware Approximate
Tue 05:22:00 AM 36.3869 145.5779 88° East  Level FlightAware Approximate
Tue 05:23:00 AM 36.4645 145.7370 74° East  Level Estimated
Tue 05:24:00 AM 36.4944 145.9181 78° East  Level FlightAware Approximate
Tue 05:25:00 AM 36.5240 146.0994 78° East  Level FlightAware Approximate
Tue 05:26:00 AM 36.5533 146.2808 79° East  Level FlightAware Approximate
Tue 05:27:00 AM 36.5823 146.4623 79° East  Level FlightAware Approximate
Tue 05:28:00 AM 36.6111 146.6440 79° East  Level FlightAware Approximate
Tue 05:29:00 AM 36.6396 146.8258 79° East  Level FlightAware Approximate
Tue 05:30:00 AM 36.6678 147.0077 79° East  Level FlightAware Approximate
Tue 05:31:00 AM 36.6958 147.1898 79° East  Level FlightAware Approximate
Tue 05:32:00 AM 36.7234 147.3720 79° East  Level FlightAware Approximate
Tue 05:33:00 AM 36.7508 147.5543 79° East  Level FlightAware Approximate
Tue 05:34:00 AM 36.7779 147.7368 79° East  Level FlightAware Approximate
Tue 05:35:00 AM 36.8524 147.8975 84° East  Level Estimated
Tue 05:36:00 AM 36.8669 148.0824 84° East  Level FlightAware Approximate
Tue 05:37:00 AM 36.8811 148.2674 84° East  Level FlightAware Approximate
Tue 05:38:00 AM 36.8950 148.4524 85° East  Level FlightAware Approximate
Tue 05:39:00 AM 36.9087 148.6375 85° East  Level FlightAware Approximate
Tue 05:40:00 AM 36.9220 148.8227 85° East  Level FlightAware Approximate
Tue 05:41:00 AM 36.9351 149.0080 85° East  Level FlightAware Approximate
Tue 05:42:00 AM 36.9478 149.1933 85° East  Level FlightAware Approximate
Tue 05:43:00 AM 37.0207 149.3555 94° East  Level Estimated
Tue 05:44:00 AM 37.0112 149.5413 94° East  Level FlightAware Approximate
Tue 05:45:00 AM 37.0014 149.7271 94° East  Level FlightAware Approximate
Tue 05:46:00 AM 36.9913 149.9128 94° East  Level FlightAware Approximate
Tue 05:47:00 AM 36.9809 150.0984 94° East  Level FlightAware Approximate
Tue 05:48:00 AM 36.9703 150.2841 94° East  Level FlightAware Approximate
Tue 05:49:00 AM 36.9593 150.4696 94° East  Level FlightAware Approximate
Tue 05:50:00 AM 36.9481 150.6551 94° East  Level FlightAware Approximate
Tue 05:51:00 AM 36.9365 150.8406 94° East  Level FlightAware Approximate
Tue 05:52:00 AM 36.9247 151.0260 95° East  Level FlightAware Approximate
Tue 05:53:00 AM 36.9126 151.2113 95° East  Level FlightAware Approximate
Tue 05:54:00 AM 36.9002 151.3965 95° East  Level FlightAware Approximate
Tue 05:55:00 AM 36.8875 151.5818 95° East  Level FlightAware Approximate
Tue 05:56:00 AM 36.8746 151.7669 95° East  Level FlightAware Approximate
Tue 05:57:00 AM 36.8613 151.9520 95° East  Level FlightAware Approximate
Tue 05:58:00 AM 36.8478 152.1370 95° East  Level FlightAware Approximate
Tue 05:59:00 AM 36.8339 152.3220 95° East  Level FlightAware Approximate
Tue 06:00:00 AM 36.8198 152.5069 95° East  Level FlightAware Approximate
Tue 06:01:00 AM 36.8054 152.6917 96° East  Level FlightAware Approximate
Tue 06:02:00 AM 36.7907 152.8764 96° East  Level FlightAware Approximate
Tue 06:03:00 AM 36.7757 153.0611 96° East  Level FlightAware Approximate
Tue 06:04:00 AM 36.7605 153.2457 96° East  Level FlightAware Approximate
Tue 06:05:00 AM 36.7449 153.4302 96° East  Level FlightAware Approximate
Tue 06:06:00 AM 36.7291 153.6147 96° East  Level FlightAware Approximate
Tue 06:07:00 AM 36.7130 153.7991 96° East  Level FlightAware Approximate
Tue 06:08:00 AM 36.6966 153.9834 96° East  Level FlightAware Approximate
Tue 06:09:00 AM 36.6799 154.1676 96° East  Level FlightAware Approximate
Tue 06:10:00 AM 36.6629 154.3517 96° East  Level FlightAware Approximate
Tue 06:11:00 AM 36.6457 154.5358 97° East  Level FlightAware Approximate
Tue 06:12:00 AM 36.6282 154.7197 97° East  Level FlightAware Approximate
Tue 06:13:00 AM 36.6103 154.9036 97° East  Level FlightAware Approximate
Tue 06:14:00 AM 36.5922 155.0874 97° East  Level FlightAware Approximate
Tue 06:15:00 AM 36.5738 155.2711 97° East  Level FlightAware Approximate
Tue 06:16:00 AM 36.5552 155.4548 97° East  Level FlightAware Approximate
Tue 06:17:00 AM 36.5363 155.6383 97° East  Level FlightAware Approximate
Tue 06:18:00 AM 36.5170 155.8218 97° East  Level FlightAware Approximate
Tue 06:19:00 AM 36.4975 156.0051 97° East  Level FlightAware Approximate
Tue 06:20:00 AM 36.4777 156.1884 98° East  Level FlightAware Approximate
Tue 06:21:00 AM 36.4577 156.3716 98° East  Level FlightAware Approximate
Tue 06:22:00 AM 36.4373 156.5546 98° East  Level FlightAware Approximate
Tue 06:23:00 AM 36.4167 156.7376 98° East  Level FlightAware Approximate
Tue 06:24:00 AM 36.3958 156.9205 98° East  Level FlightAware Approximate
Tue 06:25:00 AM 36.3746 157.1033 98° East  Level FlightAware Approximate
Tue 06:26:00 AM 36.3531 157.2859 98° East  Level FlightAware Approximate
Tue 06:27:00 AM 36.3314 157.4685 98° East  Level FlightAware Approximate
Tue 06:28:00 AM 36.3094 157.6510 98° East  Level FlightAware Approximate
Tue 06:29:00 AM 36.2871 157.8334 99° East  Level FlightAware Approximate
Tue 06:30:00 AM 36.2645 158.0157 99° East  Level FlightAware Approximate
Tue 06:31:00 AM 36.2417 158.1978 99° East  Level FlightAware Approximate
Tue 06:32:00 AM 36.2186 158.3799 99° East  Level FlightAware Approximate
Tue 06:33:00 AM 36.1952 158.5618 99° East  Level FlightAware Approximate
Tue 06:34:00 AM 36.1715 158.7437 99° East  Level FlightAware Approximate
Tue 06:35:00 AM 36.1475 158.9254 99° East  Level FlightAware Approximate
Tue 06:36:00 AM 36.1233 159.1070 99° East  Level FlightAware Approximate
Tue 06:37:00 AM 36.0988 159.2885 99° East  Level FlightAware Approximate
Tue 06:38:00 AM 36.1618 159.4552 87° East  Level Estimated
Tue 06:39:00 AM 36.1639 159.6393 89° East  Level FlightAware Approximate
Tue 06:40:00 AM 36.1656 159.8234 89° East  Level FlightAware Approximate
Tue 06:41:00 AM 36.1671 160.0076 89° East  Level FlightAware Approximate
Tue 06:42:00 AM 36.1683 160.1917 89° East  Level FlightAware Approximate
Tue 06:43:00 AM 36.1692 160.3759 90° East  Level FlightAware Approximate
Tue 06:44:00 AM 36.1698 160.5600 90° East  Level FlightAware Approximate
Tue 06:45:00 AM 36.1702 160.7442 90° East  Level FlightAware Approximate
Tue 06:46:00 AM 36.1702 160.9283 90° East  Level FlightAware Approximate
Tue 06:47:00 AM 36.1700 161.1125 90° East  Level FlightAware Approximate
Tue 06:48:00 AM 36.1695 161.2966 90° East  Level FlightAware Approximate
Tue 06:49:00 AM 36.1687 161.4808 90° East  Level FlightAware Approximate
Tue 06:50:00 AM 36.1676 161.6649 90° East  Level FlightAware Approximate
Tue 06:51:00 AM 36.1663 161.8491 90° East  Level FlightAware Approximate
Tue 06:52:00 AM 36.1647 162.0309 91° East  Level FlightAware Approximate
Tue 06:53:00 AM 36.1628 162.2128 91° East  Level FlightAware Approximate
Tue 06:54:00 AM 36.1606 162.3946 91° East  Level FlightAware Approximate
Tue 06:55:00 AM 36.1582 162.5765 91° East  Level FlightAware Approximate
Tue 06:56:00 AM 36.1555 162.7583 91° East  Level FlightAware Approximate
Tue 06:57:00 AM 36.1525 162.9401 91° East  Level FlightAware Approximate
Tue 06:58:00 AM 36.1492 163.1219 91° East  Level FlightAware Approximate
Tue 06:59:00 AM 36.1457 163.3036 91° East  Level FlightAware Approximate
Tue 07:00:00 AM 36.1419 163.4854 91° East  Level FlightAware Approximate
Tue 07:01:00 AM 36.1378 163.6671 92° East  Level FlightAware Approximate
Tue 07:02:00 AM 36.1334 163.8489 92° East  Level FlightAware Approximate
Tue 07:03:00 AM 36.1288 164.0306 92° East  Level FlightAware Approximate
Tue 07:04:00 AM 36.1239 164.2122 92° East  Level FlightAware Approximate
Tue 07:05:00 AM 36.1812 164.3797 90° East  Level Estimated
Tue 07:06:00 AM 36.1795 164.5616 91° East  Level FlightAware Approximate
Tue 07:06:22 AM 36.1000 166.4833 91° East 553 636 40,000  Level Oakland Oceanic (ODAPS)
Tue 07:20:14 AM 36.0333 169.0833 92° East 545 627 40,000  Level Oakland Oceanic (ODAPS)
Tue 07:25:15 AM 36.0000 170.0000 80° East 549 632 40,000  Level Oakland Oceanic (ODAPS)
Tue 07:34:05 AM 36.2167 171.6333 81° East 548 631 40,000  Level Oakland Oceanic (ODAPS)
Tue 07:47:58 AM 36.5167 174.2000 82° East 547 629 40,000  Level Oakland Oceanic (ODAPS)
Tue 07:56:39 AM 36.6833 175.8167 83° East 535 616 40,000  Level Oakland Oceanic (ODAPS)
Tue 08:01:51 AM 36.7667 176.7000 84° East 551 634 40,000  Level Oakland Oceanic (ODAPS)
Tue 08:06:14 AM 36.8333 177.5333 84° East 542 624 40,000  Level Oakland Oceanic (ODAPS)
Tue 08:15:42 AM 36.9500 179.3000 85° East 564 649 40,000  Level Oakland Oceanic (ODAPS)
Tue 08:19:33 AM 37.0000 180.0000 66° East 582 670 40,000  Level Oakland Oceanic (ODAPS)
Tue 08:29:34 AM 37.6500 -178.1000 67° East 582 670 40,000  Level Oakland Oceanic (ODAPS)
Tue 08:43:27 AM 38.4833 -175.4833 69° East 581 669 40,000  Level Oakland Oceanic (ODAPS)
Tue 08:57:18 AM 39.2667 -172.8333 71° East 575 662 40,000  Level Oakland Oceanic (ODAPS)
Tue 09:11:10 AM 39.9833 -170.0667 72° East 592 681 40,000  Level Oakland Oceanic (ODAPS)
Tue 09:11:33 AM 40.0000 -170.0000 72° East 577 664 40,000  Level Oakland Oceanic (ODAPS)
Tue 09:25:02 AM 40.6500 -167.2500 74° East 578 665 40,000  Level Oakland Oceanic (ODAPS)
Tue 09:38:54 AM 41.2500 -164.3833 76° East 589 678 40,000  Level Oakland Oceanic (ODAPS)
Tue 09:52:48 AM 41.7833 -161.4167 78° East 597 687 40,000  Level Oakland Oceanic (ODAPS)
Tue 09:59:21 AM 42.0000 -160.0000 79° East 581 669 40,000  Level Oakland Oceanic (ODAPS)
Tue 10:06:39 AM 42.2167 -158.4167 80° East 571 657 40,000 47 Level Oakland Oceanic (ODAPS)
Tue 10:20:30 AM 42.5500 -155.5833 82° East 538 619 41,000 36 Climbing Oakland Oceanic (ODAPS)
Tue 10:34:23 AM 42.8167 -152.8333 84° East 535 616 41,000  Level Oakland Oceanic (ODAPS)
Tue 10:48:14 AM 43.0000 -150.0500 90° East 555 639 41,000  Level Oakland Oceanic (ODAPS)
Tue 10:48:29 AM 43.0000 -150.0000 87° East 543 625 41,000  Level Oakland Oceanic (ODAPS)
Tue 11:02:06 AM 43.0833 -147.2333 88° East 539 620 41,000  Level Oakland Oceanic (ODAPS)
Tue 11:15:58 AM 43.1000 -144.4000 90° East 537 618 41,000  Level Oakland Oceanic (ODAPS)
Tue 11:29:50 AM 43.0500 -141.5667 92° East 538 619 41,000  Level Oakland Oceanic (ODAPS)
Tue 11:37:36 AM 43.0000 -140.0000 102° East 530 610 41,000  Level Oakland Oceanic (ODAPS)
Tue 11:43:43 AM 42.8167 -138.7833 103° East 522 601 41,000  Level Oakland Oceanic (ODAPS)
Tue 11:57:34 AM 42.3500 -136.1333 104° East 517 595 41,000  Level Oakland Oceanic (ODAPS)
Tue 12:11:27 PM 41.8333 -133.6167 106° East 503 579 41,000  Level Oakland Oceanic (ODAPS)
Tue 12:25:28 PM 41.2833 -131.1833 107° East 500 575 41,000  Level Oakland Oceanic (ODAPS)
Tue 12:32:11 PM 41.0000 -130.0000 106° East 499 574 41,000  Level Oakland Oceanic (ODAPS)
Tue 12:39:07 PM 40.7167 -128.7667 107° East 497 572 41,000  Level Oakland Oceanic (ODAPS)
Tue 12:46:07 PM 40.4333 -127.5500 107° East 503 579 41,000  Level Oakland Oceanic (ODAPS)
Tue 12:47:00 PM 40.3855 -127.3516 108° East 497 572 41,000 -68 Level FlightAware Transoceanic
Tue 12:47:35 PM 40.3542 -127.3272 107° East 502 578 40,900  Descending Oakland Center
Tue 12:48:00 PM 40.3429 -127.1757 108° East 497 572 41,000  Climbing FlightAware Transoceanic
Tue 12:48:36 PM 40.3186 -127.1136 102° East 503 579 40,900  Descending Oakland Center
Tue 12:49:00 PM 40.3000 -127.0000 112° Southeast 497 572 41,000 97 Climbing FlightAware Transoceanic
Tue 12:49:38 PM 40.2836 -126.9394 105° East 499 574 41,000  Level Oakland Center
Tue 12:50:00 PM 40.2482 -126.8349 112° Southeast 497 572 41,000 -98 Level FlightAware Transoceanic
Tue 12:50:39 PM 40.2106 -126.7900 123° Southeast 486 559 40,900  Descending Oakland Center
Tue 12:51:00 PM 40.1961 -126.6700 113° Southeast 497 572 41,000 98 Climbing FlightAware Transoceanic
Tue 12:51:40 PM 40.1300 -126.6511 127° Southeast 481 554 41,000  Level Oakland Center
Tue 12:52:41 PM 40.0444 -126.5131 129° Southeast 487 560 41,000  Level Oakland Center
Tue 12:53:43 PM 39.9625 -126.3761 128° Southeast 483 556 41,000  Level Oakland Center
Tue 12:54:44 PM 39.8781 -126.2378 128° Southeast 486 559 41,000  Level Oakland Center
Tue 12:55:45 PM 39.7931 -126.1003 129° Southeast 489 563 41,000  Level Oakland Center
Tue 12:56:46 PM 39.7069 -125.9606 129° Southeast 495 570 41,000  Level Oakland Center
Tue 12:57:48 PM 39.6050 -125.7958 129° Southeast 491 565 41,000 -49 Level Oakland Center
Tue 12:58:49 PM 39.5200 -125.6594 129° Southeast 490 564 40,900  Descending Oakland Center
Tue 12:59:50 PM 39.4342 -125.5231 129° Southeast 490 564 41,000  Climbing Oakland Center
Tue 01:00:51 PM 39.3469 -125.3825 129° Southeast 485 558 40,900 -49 Descending Oakland Center
Tue 01:01:52 PM 39.2608 -125.2464 129° Southeast 488 562 40,900 49 Level Oakland Center
Tue 01:02:54 PM 39.1761 -125.1122 129° Southeast 484 557 41,000 49 Climbing Oakland Center
Tue 01:03:55 PM 39.0947 -124.9828 129° Southeast 489 563 41,000  Level Oakland Center
Tue 01:04:56 PM 39.0097 -124.8494 129° Southeast 486 559 41,000  Level Oakland Center
Tue 01:05:58 PM 38.9064 -124.6894 130° Southeast 485 558 41,000 -49 Level Oakland Center
Tue 01:06:59 PM 38.8219 -124.5561 129° Southeast 484 557 40,900  Descending Oakland Center
Tue 01:08:00 PM 38.7356 -124.4242 130° Southeast 484 557 41,000 49 Climbing Oakland Center
Tue 01:09:02 PM 38.6503 -124.2936 130° Southeast 481 554 41,000  Level Oakland Center
Tue 01:10:03 PM 38.5583 -124.1531 130° Southeast 483 556 41,000  Level Oakland Center
Tue 01:11:04 PM 38.4722 -124.0217 130° Southeast 483 556 41,000 -49 Level Oakland Center
Tue 01:12:06 PM 38.3869 -123.8900 130° Southeast 483 556 40,900 -49 Descending Oakland Center
Tue 01:13:07 PM 38.3006 -123.7606 130° Southeast 482 555 40,900 49 Level Oakland Center
Tue 01:14:08 PM 38.2142 -123.6317 130° Southeast 480 552 41,000  Climbing Oakland Center
Tue 01:15:10 PM 38.1283 -123.5014 130° Southeast 482 555 40,900 -49 Descending Oakland Center
Tue 01:16:11 PM 38.0406 -123.3725 131° Southeast 483 556 40,900 49 Level Oakland Center
Tue 01:17:12 PM 37.9369 -123.2178 130° Southeast 482 555 41,000  Climbing Oakland Center
Tue 01:18:14 PM 37.8514 -123.0903 130° Southeast 477 549 40,900  Descending Oakland Center
Tue 01:24:16 PM 37.3074 -122.2940 130° Southeast 493 567 41,000 15 Climbing FlightAware ADS-B
Tue 01:25:06 PM 37.2339 -122.1880 131° Southeast 493 567 41,000  Level FlightAware ADS-B
Tue 01:25:36 PM 37.1884 -122.1230 131° Southeast 490 564 41,000  Level FlightAware ADS-B
Tue 01:26:16 PM 37.1286 -122.0370 131° Southeast 490 564 41,000  Level FlightAware ADS-B
Tue 01:26:47 PM 37.0830 -121.9720 131° Southeast 490 564 41,000  Level FlightAware ADS-B
Tue 01:27:50 PM 36.9884 -121.8360 131° Southeast 490 564 41,000  Level FlightAware ADS-B
Tue 01:28:34 PM 36.9234 -121.7440 131° Southeast 492 566 41,000  Level FlightAware ADS-B
Tue 01:29:08 PM 36.8724 -121.6720 132° Southeast 492 566 41,000  Level FlightAware ADS-B
Tue 01:29:45 PM 36.8163 -121.5920 131° Southeast 491 565 41,000  Level FlightAware ADS-B
Tue 01:31:05 PM 36.6965 -121.4230 131° Southeast 490 564 41,000  Level FlightAware ADS-B
Tue 01:31:35 PM 36.6512 -121.3600 132° Southeast 490 564 41,000  Level FlightAware ADS-B
Tue 01:32:48 PM 36.5417 -121.2060 131° Southeast 490 564 41,000  Level FlightAware ADS-B
Tue 01:33:35 PM 36.4833 -121.1303 131° Southeast 491 565 41,000  Level Oakland Center
Tue 01:34:36 PM 36.3939 -121.0042 131° Southeast 488 562 41,000 -49 Level Oakland Center
Tue 01:35:37 PM 36.3036 -120.8811 132° Southeast 485 558 40,900 -49 Descending Oakland Center
Tue 01:36:39 PM 36.2139 -120.7544 131° Southeast 487 560 40,900 49 Level Oakland Center
Tue 01:37:40 PM 36.1225 -120.6300 132° Southeast 489 563 41,000 49 Climbing Oakland Center
Tue 01:38:42 PM 36.0139 -120.4786 132° Southeast 490 564 41,000  Level Oakland Center
Tue 01:39:43 PM 35.9239 -120.3556 132° Southeast 484 557 41,000 -49 Level Oakland Center
Tue 01:40:44 PM 35.8333 -120.2314 132° Southeast 483 556 40,900 -49 Descending Oakland Center
Tue 01:41:46 PM 35.7422 -120.1081 132° Southeast 483 556 40,900 -49 Level Oakland Center
Tue 01:42:47 PM 35.6519 -119.9867 132° Southeast 479 551 40,800 -836 Descending Oakland Center
Tue 01:43:48 PM 35.5472 -119.8928 144° Southeast 465 535 39,200 -1,593 Descending Oakland Center
Tue 01:44:40 PM 35.4614 -119.8175 144° Southeast 467 537 37,800 -1,421 Descending Los Angeles Center
Tue 01:45:42 PM 35.3531 -119.7247 145° Southeast 471 542 36,500 -1,403 Descending Los Angeles Center
Tue 01:46:44 PM 35.2469 -119.6331 145° Southeast 466 536 34,900 -1,984 Descending Los Angeles Center
Tue 01:47:46 PM 35.1167 -119.5217 145° Southeast 474 545 32,400 -2,468 Descending Los Angeles Center
Tue 01:48:48 PM 35.0094 -119.4292 145° Southeast 471 542 29,800 -2,400 Descending Los Angeles Center
Tue 01:49:51 PM 34.9067 -119.3422 145° Southeast 454 522 27,400 -2,160 Descending Los Angeles Center
Tue 01:50:53 PM 34.8072 -119.2586 145° Southeast 437 503 25,300 -2,032 Descending Los Angeles Center
Tue 01:51:55 PM 34.7117 -119.1769 145° Southeast 423 487 23,200 -2,177 Descending Los Angeles Center
Tue 01:52:57 PM 34.6000 -119.0839 146° Southeast 423 487 20,800 -2,177 Descending Los Angeles Center
Tue 01:53:59 PM 34.5072 -119.0061 145° Southeast 406 467 18,700 -1,984 Descending Los Angeles Center
Tue 01:55:01 PM 34.4153 -118.9292 145° Southeast 400 460 16,700 -2,032 Descending Los Angeles Center
Tue 01:56:03 PM 34.3194 -118.8669 152° Southeast 392 451 14,500 -1,439 Descending Los Angeles Center
Tue 02:01:37 PM 34.0205 -118.5659 152° Southeast 228 262 7,200 -1,239 Descending FlightAware ADS-B
Tue 02:02:11 PM 34.0165 -118.5229 96° East 227 261 6,900 -429 Descending FlightAware ADS-B
Tue 02:02:33 PM 34.0141 -118.4979 97° East 226 260 6,800 -98 Descending FlightAware ADS-B
Tue 02:03:12 PM 34.0108 -118.4504 95° East 228 262 6,800 -673 Level FlightAware ADS-B
Tue 02:04:20 PM 34.0217 -118.3619 95° East 225 259 5,600 -1,292 Descending Los Angeles Center
Tue 02:05:22 PM 34.0297 -118.2908 82° East 218 251 4,000 -1,403 Descending Los Angeles Center
Tue 02:06:24 PM 33.9975 -118.2539 136° Southeast 203 234 2,700 -919 Descending Los Angeles Center
Tue 02:07:26 PM 33.9611 -118.2875 217° Southwest 197 227 2,100 -768 Descending Los Angeles Center
Tue 02:08:29 PM 33.9575 -118.3442 266° West 182 209 1,100 -816 Descending Los Angeles Center
Tue 02:09:31 PM 33.9522 -118.3914 262° West 161 185 400 -677 Descending Los Angeles Center

Login

Don't have an account? Register now (free) for customized features, flight alerts, and more!